sensor_id;sensor_type;location;lat;lon;timestamp;P1;durP1;ratioP1;P2;durP2;ratioP2
7110;SDS011;3597;42.650;23.386;2023-05-20T00:01:20;1.90;;;1.90;;
7110;SDS011;3597;42.650;23.386;2023-05-20T00:03:45;1.70;;;1.70;;
7110;SDS011;3597;42.650;23.386;2023-05-20T00:06:10;2.07;;;1.97;;
7110;SDS011;3597;42.650;23.386;2023-05-20T00:08:36;1.80;;;1.80;;
7110;SDS011;3597;42.650;23.386;2023-05-20T00:11:01;2.00;;;1.70;;
7110;SDS011;3597;42.650;23.386;2023-05-20T00:13:27;2.43;;;1.90;;
7110;SDS011;3597;42.650;23.386;2023-05-20T00:15:52;1.70;;;1.70;;
7110;SDS011;3597;42.650;23.386;2023-05-20T00:18:17;1.70;;;1.70;;
7110;SDS011;3597;42.650;23.386;2023-05-20T00:20:43;1.80;;;1.80;;
7110;SDS011;3597;42.650;23.386;2023-05-20T00:23:08;2.10;;;2.10;;
7110;SDS011;3597;42.650;23.386;2023-05-20T00:25:33;1.57;;;1.57;;
7110;SDS011;3597;42.650;23.386;2023-05-20T00:27:59;1.70;;;1.70;;
7110;SDS011;3597;42.650;23.386;2023-05-20T00:30:24;1.43;;;1.43;;
7110;SDS011;3597;42.650;23.386;2023-05-20T00:32:50;1.73;;;1.70;;
7110;SDS011;3597;42.650;23.386;2023-05-20T00:35:15;2.03;;;2.00;;
7110;SDS011;3597;42.650;23.386;2023-05-20T00:37:40;1.80;;;1.80;;
7110;SDS011;3597;42.650;23.386;2023-05-20T00:40:06;1.93;;;1.93;;
7110;SDS011;3597;42.650;23.386;2023-05-20T00:42:32;1.43;;;1.43;;
7110;SDS011;3597;42.650;23.386;2023-05-20T00:44:58;1.60;;;1.60;;
7110;SDS011;3597;42.650;23.386;2023-05-20T00:47:28;2.27;;;1.50;;
7110;SDS011;3597;42.650;23.386;2023-05-20T00:49:54;1.50;;;1.50;;
7110;SDS011;3597;42.650;23.386;2023-05-20T00:52:20;1.73;;;1.73;;
7110;SDS011;3597;42.650;23.386;2023-05-20T00:54:46;1.50;;;1.50;;
7110;SDS011;3597;42.650;23.386;2023-05-20T00:57:11;1.40;;;1.40;;
7110;SDS011;3597;42.650;23.386;2023-05-20T00:59:37;1.90;;;1.90;;
7110;SDS011;3597;42.650;23.386;2023-05-20T01:02:03;1.53;;;1.53;;
7110;SDS011;3597;42.650;23.386;2023-05-20T01:04:30;1.60;;;1.60;;
7110;SDS011;3597;42.650;23.386;2023-05-20T01:06:55;1.60;;;1.60;;
7110;SDS011;3597;42.650;23.386;2023-05-20T01:09:22;2.10;;;2.10;;
7110;SDS011;3597;42.650;23.386;2023-05-20T01:11:54;1.40;;;1.40;;
7110;SDS011;3597;42.650;23.386;2023-05-20T01:14:23;1.50;;;1.50;;
7110;SDS011;3597;42.650;23.386;2023-05-20T01:16:51;1.97;;;1.97;;
7110;SDS011;3597;42.650;23.386;2023-05-20T01:19:34;1.70;;;1.70;;
7110;SDS011;3597;42.650;23.386;2023-05-20T01:22:01;1.50;;;1.50;;
7110;SDS011;3597;42.650;23.386;2023-05-20T01:24:29;1.60;;;1.60;;
7110;SDS011;3597;42.650;23.386;2023-05-20T01:26:54;1.50;;;1.50;;
7110;SDS011;3597;42.650;23.386;2023-05-20T01:29:22;1.60;;;1.60;;
7110;SDS011;3597;42.650;23.386;2023-05-20T01:31:48;1.80;;;1.70;;
7110;SDS011;3597;42.650;23.386;2023-05-20T01:34:14;2.73;;;1.87;;
7110;SDS011;3597;42.650;23.386;2023-05-20T01:36:39;1.60;;;1.50;;
7110;SDS011;3597;42.650;23.386;2023-05-20T01:39:05;1.70;;;1.70;;
7110;SDS011;3597;42.650;23.386;2023-05-20T01:41:31;1.50;;;1.50;;
7110;SDS011;3597;42.650;23.386;2023-05-20T01:43:58;1.53;;;1.53;;
7110;SDS011;3597;42.650;23.386;2023-05-20T01:46:24;1.93;;;1.93;;
7110;SDS011;3597;42.650;23.386;2023-05-20T01:48:49;1.93;;;1.93;;
7110;SDS011;3597;42.650;23.386;2023-05-20T01:51:15;1.60;;;1.60;;
7110;SDS011;3597;42.650;23.386;2023-05-20T01:53:40;1.93;;;1.83;;
7110;SDS011;3597;42.650;23.386;2023-05-20T01:56:06;1.40;;;1.40;;
7110;SDS011;3597;42.650;23.386;2023-05-20T01:58:31;1.90;;;1.80;;
7110;SDS011;3597;42.650;23.386;2023-05-20T02:00:56;1.70;;;1.63;;
7110;SDS011;3597;42.650;23.386;2023-05-20T02:03:22;1.40;;;1.40;;
7110;SDS011;3597;42.650;23.386;2023-05-20T02:05:47;1.60;;;1.60;;
7110;SDS011;3597;42.650;23.386;2023-05-20T02:08:12;1.50;;;1.50;;
7110;SDS011;3597;42.650;23.386;2023-05-20T02:10:38;1.80;;;1.77;;
7110;SDS011;3597;42.650;23.386;2023-05-20T02:13:03;1.63;;;1.63;;
7110;SDS011;3597;42.650;23.386;2023-05-20T02:15:28;1.60;;;1.60;;
7110;SDS011;3597;42.650;23.386;2023-05-20T02:17:54;1.63;;;1.40;;
7110;SDS011;3597;42.650;23.386;2023-05-20T02:20:21;1.70;;;1.70;;
7110;SDS011;3597;42.650;23.386;2023-05-20T02:22:47;1.40;;;1.40;;
7110;SDS011;3597;42.650;23.386;2023-05-20T02:25:12;2.10;;;2.00;;
7110;SDS011;3597;42.650;23.386;2023-05-20T02:27:38;1.63;;;1.63;;
7110;SDS011;3597;42.650;23.386;2023-05-20T02:30:04;1.80;;;1.80;;
7110;SDS011;3597;42.650;23.386;2023-05-20T02:32:31;1.60;;;1.60;;
7110;SDS011;3597;42.650;23.386;2023-05-20T02:34:57;1.33;;;1.33;;
7110;SDS011;3597;42.650;23.386;2023-05-20T02:37:23;1.30;;;1.30;;
7110;SDS011;3597;42.650;23.386;2023-05-20T02:39:48;1.40;;;1.40;;
7110;SDS011;3597;42.650;23.386;2023-05-20T02:42:14;1.57;;;1.57;;
7110;SDS011;3597;42.650;23.386;2023-05-20T02:44:39;1.37;;;1.37;;
7110;SDS011;3597;42.650;23.386;2023-05-20T02:47:05;1.50;;;1.50;;
7110;SDS011;3597;42.650;23.386;2023-05-20T02:49:30;1.50;;;1.50;;
7110;SDS011;3597;42.650;23.386;2023-05-20T02:51:56;1.50;;;1.50;;
7110;SDS011;3597;42.650;23.386;2023-05-20T02:54:21;1.47;;;1.47;;
7110;SDS011;3597;42.650;23.386;2023-05-20T02:56:46;1.53;;;1.53;;
7110;SDS011;3597;42.650;23.386;2023-05-20T02:59:12;1.60;;;1.60;;
7110;SDS011;3597;42.650;23.386;2023-05-20T03:01:37;1.70;;;1.70;;
7110;SDS011;3597;42.650;23.386;2023-05-20T03:04:04;1.30;;;1.30;;
7110;SDS011;3597;42.650;23.386;2023-05-20T03:06:29;1.33;;;1.33;;
7110;SDS011;3597;42.650;23.386;2023-05-20T03:08:55;1.93;;;1.83;;
7110;SDS011;3597;42.650;23.386;2023-05-20T03:11:22;1.40;;;1.40;;
7110;SDS011;3597;42.650;23.386;2023-05-20T03:13:47;1.67;;;1.67;;
7110;SDS011;3597;42.650;23.386;2023-05-20T03:16:12;1.43;;;1.43;;
7110;SDS011;3597;42.650;23.386;2023-05-20T03:18:38;1.50;;;1.50;;
7110;SDS011;3597;42.650;23.386;2023-05-20T03:21:03;1.57;;;1.57;;
7110;SDS011;3597;42.650;23.386;2023-05-20T03:23:28;1.40;;;1.40;;
7110;SDS011;3597;42.650;23.386;2023-05-20T03:25:54;1.93;;;1.93;;
7110;SDS011;3597;42.650;23.386;2023-05-20T03:28:19;1.77;;;1.50;;
7110;SDS011;3597;42.650;23.386;2023-05-20T03:30:45;1.60;;;1.60;;
7110;SDS011;3597;42.650;23.386;2023-05-20T03:33:10;1.20;;;1.20;;
7110;SDS011;3597;42.650;23.386;2023-05-20T03:35:36;1.53;;;1.53;;
7110;SDS011;3597;42.650;23.386;2023-05-20T03:38:01;1.47;;;1.47;;
7110;SDS011;3597;42.650;23.386;2023-05-20T03:40:26;1.80;;;1.80;;
7110;SDS011;3597;42.650;23.386;2023-05-20T03:42:52;1.50;;;1.50;;
7110;SDS011;3597;42.650;23.386;2023-05-20T03:45:17;1.50;;;1.50;;
7110;SDS011;3597;42.650;23.386;2023-05-20T03:47:43;1.50;;;1.50;;
7110;SDS011;3597;42.650;23.386;2023-05-20T03:50:08;1.50;;;1.50;;
7110;SDS011;3597;42.650;23.386;2023-05-20T03:52:34;1.37;;;1.37;;
7110;SDS011;3597;42.650;23.386;2023-05-20T03:54:59;1.40;;;1.40;;
7110;SDS011;3597;42.650;23.386;2023-05-20T03:57:25;1.47;;;1.47;;
7110;SDS011;3597;42.650;23.386;2023-05-20T03:59:50;1.40;;;1.40;;
7110;SDS011;3597;42.650;23.386;2023-05-20T04:02:16;1.50;;;1.50;;
7110;SDS011;3597;42.650;23.386;2023-05-20T04:04:41;2.73;;;1.80;;
7110;SDS011;3597;42.650;23.386;2023-05-20T04:07:07;1.67;;;1.67;;
7110;SDS011;3597;42.650;23.386;2023-05-20T04:09:33;1.30;;;1.30;;
7110;SDS011;3597;42.650;23.386;2023-05-20T04:11:58;1.63;;;1.63;;
7110;SDS011;3597;42.650;23.386;2023-05-20T04:14:23;1.63;;;1.63;;
7110;SDS011;3597;42.650;23.386;2023-05-20T04:16:49;1.60;;;1.60;;
7110;SDS011;3597;42.650;23.386;2023-05-20T04:19:15;1.33;;;1.33;;
7110;SDS011;3597;42.650;23.386;2023-05-20T04:21:43;2.37;;;2.37;;
7110;SDS011;3597;42.650;23.386;2023-05-20T04:24:08;1.80;;;1.80;;
7110;SDS011;3597;42.650;23.386;2023-05-20T04:26:34;1.57;;;1.57;;
7110;SDS011;3597;42.650;23.386;2023-05-20T04:29:00;1.87;;;1.77;;
7110;SDS011;3597;42.650;23.386;2023-05-20T04:31:28;1.60;;;1.60;;
7110;SDS011;3597;42.650;23.386;2023-05-20T04:33:54;4.13;;;2.07;;
7110;SDS011;3597;42.650;23.386;2023-05-20T04:36:20;1.40;;;1.40;;
7110;SDS011;3597;42.650;23.386;2023-05-20T04:38:46;1.37;;;1.37;;
7110;SDS011;3597;42.650;23.386;2023-05-20T04:41:12;1.80;;;1.80;;
7110;SDS011;3597;42.650;23.386;2023-05-20T04:43:37;1.70;;;1.70;;
7110;SDS011;3597;42.650;23.386;2023-05-20T04:46:04;1.50;;;1.50;;
7110;SDS011;3597;42.650;23.386;2023-05-20T04:48:32;1.70;;;1.60;;
7110;SDS011;3597;42.650;23.386;2023-05-20T04:50:58;1.50;;;1.50;;
7110;SDS011;3597;42.650;23.386;2023-05-20T04:53:23;1.40;;;1.40;;
7110;SDS011;3597;42.650;23.386;2023-05-20T04:55:49;1.60;;;1.60;;
7110;SDS011;3597;42.650;23.386;2023-05-20T04:58:17;1.57;;;1.57;;
7110;SDS011;3597;42.650;23.386;2023-05-20T05:00:43;1.63;;;1.63;;
7110;SDS011;3597;42.650;23.386;2023-05-20T05:03:09;1.80;;;1.80;;
7110;SDS011;3597;42.650;23.386;2023-05-20T05:05:36;2.60;;;2.60;;
7110;SDS011;3597;42.650;23.386;2023-05-20T05:08:03;2.23;;;2.20;;
7110;SDS011;3597;42.650;23.386;2023-05-20T05:10:29;2.00;;;2.00;;
7110;SDS011;3597;42.650;23.386;2023-05-20T05:12:55;1.90;;;1.90;;
7110;SDS011;3597;42.650;23.386;2023-05-20T05:15:20;1.67;;;1.67;;
7110;SDS011;3597;42.650;23.386;2023-05-20T05:17:46;2.10;;;2.10;;
7110;SDS011;3597;42.650;23.386;2023-05-20T05:20:11;2.20;;;2.20;;
7110;SDS011;3597;42.650;23.386;2023-05-20T05:22:37;2.13;;;2.00;;
7110;SDS011;3597;42.650;23.386;2023-05-20T05:25:04;2.40;;;2.30;;
7110;SDS011;3597;42.650;23.386;2023-05-20T05:27:30;2.22;;;2.22;;
7110;SDS011;3597;42.650;23.386;2023-05-20T05:29:56;2.53;;;2.53;;
7110;SDS011;3597;42.650;23.386;2023-05-20T05:32:21;3.50;;;3.40;;
7110;SDS011;3597;42.650;23.386;2023-05-20T05:34:46;3.72;;;3.53;;
7110;SDS011;3597;42.650;23.386;2023-05-20T05:37:12;3.05;;;3.05;;
7110;SDS011;3597;42.650;23.386;2023-05-20T05:39:37;2.40;;;2.30;;
7110;SDS011;3597;42.650;23.386;2023-05-20T05:42:03;2.58;;;2.50;;
7110;SDS011;3597;42.650;23.386;2023-05-20T05:44:29;1.80;;;1.80;;
7110;SDS011;3597;42.650;23.386;2023-05-20T05:46:55;2.28;;;2.28;;
7110;SDS011;3597;42.650;23.386;2023-05-20T05:49:20;2.30;;;2.30;;
7110;SDS011;3597;42.650;23.386;2023-05-20T05:51:46;2.00;;;2.00;;
7110;SDS011;3597;42.650;23.386;2023-05-20T05:54:11;2.35;;;2.30;;
7110;SDS011;3597;42.650;23.386;2023-05-20T05:56:36;2.25;;;2.20;;
7110;SDS011;3597;42.650;23.386;2023-05-20T05:59:02;2.10;;;2.10;;
7110;SDS011;3597;42.650;23.386;2023-05-20T06:01:28;3.63;;;3.35;;
7110;SDS011;3597;42.650;23.386;2023-05-20T06:03:53;2.00;;;1.95;;
7110;SDS011;3597;42.650;23.386;2023-05-20T06:06:19;1.92;;;1.92;;
7110;SDS011;3597;42.650;23.386;2023-05-20T06:08:44;2.08;;;1.98;;
7110;SDS011;3597;42.650;23.386;2023-05-20T06:11:09;2.28;;;2.17;;
7110;SDS011;3597;42.650;23.386;2023-05-20T06:13:35;1.88;;;1.88;;
7110;SDS011;3597;42.650;23.386;2023-05-20T06:16:00;1.92;;;1.92;;
7110;SDS011;3597;42.650;23.386;2023-05-20T06:18:26;1.95;;;1.95;;
7110;SDS011;3597;42.650;23.386;2023-05-20T06:20:55;1.80;;;1.80;;
7110;SDS011;3597;42.650;23.386;2023-05-20T06:23:21;1.98;;;1.88;;
7110;SDS011;3597;42.650;23.386;2023-05-20T06:25:46;1.60;;;1.60;;
7110;SDS011;3597;42.650;23.386;2023-05-20T06:28:12;1.70;;;1.70;;
7110;SDS011;3597;42.650;23.386;2023-05-20T06:30:38;1.55;;;1.55;;
7110;SDS011;3597;42.650;23.386;2023-05-20T06:33:03;1.80;;;1.80;;
7110;SDS011;3597;42.650;23.386;2023-05-20T06:35:28;2.05;;;1.58;;
7110;SDS011;3597;42.650;23.386;2023-05-20T06:37:54;1.70;;;1.70;;
7110;SDS011;3597;42.650;23.386;2023-05-20T06:40:19;1.67;;;1.67;;
7110;SDS011;3597;42.650;23.386;2023-05-20T06:42:45;1.95;;;1.92;;
7110;SDS011;3597;42.650;23.386;2023-05-20T06:45:10;1.90;;;1.90;;
7110;SDS011;3597;42.650;23.386;2023-05-20T06:47:36;2.00;;;1.90;;
7110;SDS011;3597;42.650;23.386;2023-05-20T06:50:01;2.03;;;2.03;;
7110;SDS011;3597;42.650;23.386;2023-05-20T06:52:27;2.22;;;2.13;;
7110;SDS011;3597;42.650;23.386;2023-05-20T06:54:52;2.00;;;2.00;;
7110;SDS011;3597;42.650;23.386;2023-05-20T06:57:18;1.80;;;1.80;;
7110;SDS011;3597;42.650;23.386;2023-05-20T06:59:43;1.70;;;1.70;;
7110;SDS011;3597;42.650;23.386;2023-05-20T07:02:09;1.67;;;1.67;;
7110;SDS011;3597;42.650;23.386;2023-05-20T07:04:35;1.88;;;1.88;;
7110;SDS011;3597;42.650;23.386;2023-05-20T07:07:00;1.90;;;1.80;;
7110;SDS011;3597;42.650;23.386;2023-05-20T07:09:25;1.80;;;1.80;;
7110;SDS011;3597;42.650;23.386;2023-05-20T07:11:51;1.80;;;1.80;;
7110;SDS011;3597;42.650;23.386;2023-05-20T07:14:16;1.67;;;1.67;;
7110;SDS011;3597;42.650;23.386;2023-05-20T07:16:41;2.40;;;2.30;;
7110;SDS011;3597;42.650;23.386;2023-05-20T07:19:07;2.08;;;2.08;;
7110;SDS011;3597;42.650;23.386;2023-05-20T07:21:32;1.73;;;1.73;;
7110;SDS011;3597;42.650;23.386;2023-05-20T07:23:57;1.70;;;1.70;;
7110;SDS011;3597;42.650;23.386;2023-05-20T07:26:23;2.03;;;2.00;;
7110;SDS011;3597;42.650;23.386;2023-05-20T07:28:48;2.10;;;2.10;;
7110;SDS011;3597;42.650;23.386;2023-05-20T07:31:13;1.88;;;1.88;;
7110;SDS011;3597;42.650;23.386;2023-05-20T07:33:39;2.00;;;2.00;;
7110;SDS011;3597;42.650;23.386;2023-05-20T07:36:04;1.80;;;1.80;;
7110;SDS011;3597;42.650;23.386;2023-05-20T07:38:30;1.90;;;1.90;;
7110;SDS011;3597;42.650;23.386;2023-05-20T07:40:56;1.92;;;1.90;;
7110;SDS011;3597;42.650;23.386;2023-05-20T07:43:21;1.83;;;1.83;;
7110;SDS011;3597;42.650;23.386;2023-05-20T07:45:47;2.10;;;2.10;;
7110;SDS011;3597;42.650;23.386;2023-05-20T07:48:12;1.90;;;1.90;;
7110;SDS011;3597;42.650;23.386;2023-05-20T07:50:38;2.13;;;1.90;;
7110;SDS011;3597;42.650;23.386;2023-05-20T07:53:04;1.67;;;1.67;;
7110;SDS011;3597;42.650;23.386;2023-05-20T07:55:32;1.98;;;1.92;;
7110;SDS011;3597;42.650;23.386;2023-05-20T07:57:58;2.00;;;2.00;;
7110;SDS011;3597;42.650;23.386;2023-05-20T08:00:23;2.05;;;2.05;;
7110;SDS011;3597;42.650;23.386;2023-05-20T08:02:49;1.95;;;1.95;;
7110;SDS011;3597;42.650;23.386;2023-05-20T08:05:14;1.77;;;1.77;;
7110;SDS011;3597;42.650;23.386;2023-05-20T08:07:39;2.10;;;2.10;;
7110;SDS011;3597;42.650;23.386;2023-05-20T08:10:05;2.00;;;2.00;;
7110;SDS011;3597;42.650;23.386;2023-05-20T08:12:31;2.67;;;2.63;;
7110;SDS011;3597;42.650;23.386;2023-05-20T08:14:56;2.10;;;2.10;;
7110;SDS011;3597;42.650;23.386;2023-05-20T08:17:21;3.03;;;2.93;;
7110;SDS011;3597;42.650;23.386;2023-05-20T08:19:47;2.27;;;2.27;;
7110;SDS011;3597;42.650;23.386;2023-05-20T08:22:12;2.33;;;2.33;;
7110;SDS011;3597;42.650;23.386;2023-05-20T08:24:37;2.97;;;2.27;;
7110;SDS011;3597;42.650;23.386;2023-05-20T08:27:03;1.97;;;1.97;;
7110;SDS011;3597;42.650;23.386;2023-05-20T08:29:29;1.90;;;1.90;;
7110;SDS011;3597;42.650;23.386;2023-05-20T08:31:54;1.87;;;1.87;;
7110;SDS011;3597;42.650;23.386;2023-05-20T08:34:20;2.30;;;2.30;;
7110;SDS011;3597;42.650;23.386;2023-05-20T08:36:45;2.80;;;2.40;;
7110;SDS011;3597;42.650;23.386;2023-05-20T08:39:10;2.10;;;2.00;;
7110;SDS011;3597;42.650;23.386;2023-05-20T08:41:36;2.10;;;2.10;;
7110;SDS011;3597;42.650;23.386;2023-05-20T08:44:02;2.60;;;2.50;;
7110;SDS011;3597;42.650;23.386;2023-05-20T08:46:27;2.15;;;2.15;;
7110;SDS011;3597;42.650;23.386;2023-05-20T08:48:53;2.20;;;2.20;;
7110;SDS011;3597;42.650;23.386;2023-05-20T08:51:19;2.73;;;2.63;;
7110;SDS011;3597;42.650;23.386;2023-05-20T08:53:46;2.53;;;2.40;;
7110;SDS011;3597;42.650;23.386;2023-05-20T08:56:11;2.20;;;2.20;;
7110;SDS011;3597;42.650;23.386;2023-05-20T08:58:37;2.33;;;2.33;;
7110;SDS011;3597;42.650;23.386;2023-05-20T09:01:02;2.30;;;2.30;;
7110;SDS011;3597;42.650;23.386;2023-05-20T09:03:27;2.20;;;2.20;;
7110;SDS011;3597;42.650;23.386;2023-05-20T09:05:53;2.27;;;2.27;;
7110;SDS011;3597;42.650;23.386;2023-05-20T09:08:27;2.60;;;2.50;;
7110;SDS011;3597;42.650;23.386;2023-05-20T09:10:55;2.70;;;2.60;;
7110;SDS011;3597;42.650;23.386;2023-05-20T09:13:20;2.27;;;2.27;;
7110;SDS011;3597;42.650;23.386;2023-05-20T09:15:45;2.00;;;2.00;;
7110;SDS011;3597;42.650;23.386;2023-05-20T09:18:11;2.37;;;2.27;;
7110;SDS011;3597;42.650;23.386;2023-05-20T09:20:37;2.20;;;2.10;;
7110;SDS011;3597;42.650;23.386;2023-05-20T09:23:06;2.50;;;2.40;;
7110;SDS011;3597;42.650;23.386;2023-05-20T09:25:32;2.37;;;2.23;;
7110;SDS011;3597;42.650;23.386;2023-05-20T09:28:00;1.93;;;1.93;;
7110;SDS011;3597;42.650;23.386;2023-05-20T09:30:27;2.43;;;2.40;;
7110;SDS011;3597;42.650;23.386;2023-05-20T09:32:56;2.10;;;2.10;;
7110;SDS011;3597;42.650;23.386;2023-05-20T09:35:23;2.20;;;2.20;;
7110;SDS011;3597;42.650;23.386;2023-05-20T09:37:53;1.90;;;1.90;;
7110;SDS011;3597;42.650;23.386;2023-05-20T09:40:25;2.60;;;2.50;;
7110;SDS011;3597;42.650;23.386;2023-05-20T09:42:52;3.00;;;2.80;;
7110;SDS011;3597;42.650;23.386;2023-05-20T09:45:21;2.43;;;2.23;;
7110;SDS011;3597;42.650;23.386;2023-05-20T09:47:49;2.00;;;2.00;;
7110;SDS011;3597;42.650;23.386;2023-05-20T09:50:15;2.20;;;2.20;;
7110;SDS011;3597;42.650;23.386;2023-05-20T09:52:41;2.30;;;2.30;;
7110;SDS011;3597;42.650;23.386;2023-05-20T09:55:08;2.50;;;2.40;;
7110;SDS011;3597;42.650;23.386;2023-05-20T09:57:37;2.47;;;2.37;;
7110;SDS011;3597;42.650;23.386;2023-05-20T10:00:03;2.00;;;2.00;;
7110;SDS011;3597;42.650;23.386;2023-05-20T10:02:30;2.33;;;2.27;;
7110;SDS011;3597;42.650;23.386;2023-05-20T10:04:56;2.10;;;2.00;;
7110;SDS011;3597;42.650;23.386;2023-05-20T10:07:46;2.03;;;1.70;;
7110;SDS011;3597;42.650;23.386;2023-05-20T10:18:38;1.90;;;1.90;;
7110;SDS011;3597;42.650;23.386;2023-05-20T10:21:17;2.00;;;1.90;;
7110;SDS011;3597;42.650;23.386;2023-05-20T10:23:46;1.97;;;1.97;;
7110;SDS011;3597;42.650;23.386;2023-05-20T10:26:11;1.77;;;1.77;;
7110;SDS011;3597;42.650;23.386;2023-05-20T10:28:37;1.70;;;1.70;;
7110;SDS011;3597;42.650;23.386;2023-05-20T10:31:15;1.90;;;1.80;;
7110;SDS011;3597;42.650;23.386;2023-05-20T10:33:41;2.00;;;1.90;;
7110;SDS011;3597;42.650;23.386;2023-05-20T10:36:07;1.75;;;1.75;;
7110;SDS011;3597;42.650;23.386;2023-05-20T10:38:33;1.77;;;1.77;;
7110;SDS011;3597;42.650;23.386;2023-05-20T10:41:06;1.83;;;1.83;;
7110;SDS011;3597;42.650;23.386;2023-05-20T10:43:33;1.87;;;1.87;;
7110;SDS011;3597;42.650;23.386;2023-05-20T10:45:58;1.87;;;1.87;;
7110;SDS011;3597;42.650;23.386;2023-05-20T10:48:24;1.90;;;1.90;;
7110;SDS011;3597;42.650;23.386;2023-05-20T10:50:55;1.77;;;1.77;;
7110;SDS011;3597;42.650;23.386;2023-05-20T10:53:22;1.50;;;1.50;;
7110;SDS011;3597;42.650;23.386;2023-05-20T10:55:49;1.80;;;1.80;;
7110;SDS011;3597;42.650;23.386;2023-05-20T10:58:15;1.70;;;1.60;;
7110;SDS011;3597;42.650;23.386;2023-05-20T11:00:41;1.60;;;1.60;;
7110;SDS011;3597;42.650;23.386;2023-05-20T11:03:07;1.80;;;1.80;;
7110;SDS011;3597;42.650;23.386;2023-05-20T11:05:33;2.00;;;1.90;;
7110;SDS011;3597;42.650;23.386;2023-05-20T11:08:02;1.90;;;1.90;;
7110;SDS011;3597;42.650;23.386;2023-05-20T11:10:28;1.90;;;1.90;;
7110;SDS011;3597;42.650;23.386;2023-05-20T11:12:55;2.07;;;1.80;;
7110;SDS011;3597;42.650;23.386;2023-05-20T11:15:21;1.92;;;1.85;;
7110;SDS011;3597;42.650;23.386;2023-05-20T11:17:56;1.88;;;1.88;;
7110;SDS011;3597;42.650;23.386;2023-05-20T11:20:22;2.00;;;1.90;;
7110;SDS011;3597;42.650;23.386;2023-05-20T11:22:52;1.67;;;1.67;;
7110;SDS011;3597;42.650;23.386;2023-05-20T11:25:18;1.90;;;1.90;;
7110;SDS011;3597;42.650;23.386;2023-05-20T11:27:44;1.87;;;1.83;;
7110;SDS011;3597;42.650;23.386;2023-05-20T11:30:13;2.10;;;1.87;;
7110;SDS011;3597;42.650;23.386;2023-05-20T11:33:03;1.90;;;1.80;;
7110;SDS011;3597;42.650;23.386;2023-05-20T11:35:29;1.70;;;1.70;;
7110;SDS011;3597;42.650;23.386;2023-05-20T11:38:02;1.83;;;1.83;;
7110;SDS011;3597;42.650;23.386;2023-05-20T11:40:53;2.10;;;2.00;;
7110;SDS011;3597;42.650;23.386;2023-05-20T11:43:19;1.73;;;1.67;;
7110;SDS011;3597;42.650;23.386;2023-05-20T11:45:52;1.63;;;1.63;;
7110;SDS011;3597;42.650;23.386;2023-05-20T11:48:19;1.77;;;1.77;;
7110;SDS011;3597;42.650;23.386;2023-05-20T11:50:45;1.60;;;1.60;;
7110;SDS011;3597;42.650;23.386;2023-05-20T11:53:18;1.70;;;1.70;;
7110;SDS011;3597;42.650;23.386;2023-05-20T11:58:24;1.70;;;1.70;;
7110;SDS011;3597;42.650;23.386;2023-05-20T12:00:51;1.90;;;1.90;;
7110;SDS011;3597;42.650;23.386;2023-05-20T12:03:16;1.90;;;1.90;;
7110;SDS011;3597;42.650;23.386;2023-05-20T12:05:42;1.70;;;1.70;;
7110;SDS011;3597;42.650;23.386;2023-05-20T12:08:08;2.87;;;1.80;;
7110;SDS011;3597;42.650;23.386;2023-05-20T12:10:33;1.87;;;1.83;;
7110;SDS011;3597;42.650;23.386;2023-05-20T12:12:59;1.47;;;1.47;;
7110;SDS011;3597;42.650;23.386;2023-05-20T12:15:24;1.50;;;1.50;;
7110;SDS011;3597;42.650;23.386;2023-05-20T12:17:51;1.80;;;1.80;;
7110;SDS011;3597;42.650;23.386;2023-05-20T12:20:18;2.03;;;1.93;;
7110;SDS011;3597;42.650;23.386;2023-05-20T12:22:46;1.40;;;1.40;;
7110;SDS011;3597;42.650;23.386;2023-05-20T12:25:12;2.00;;;1.90;;
7110;SDS011;3597;42.650;23.386;2023-05-20T12:27:39;1.70;;;1.70;;
7110;SDS011;3597;42.650;23.386;2023-05-20T12:30:06;1.60;;;1.60;;
7110;SDS011;3597;42.650;23.386;2023-05-20T12:32:33;1.80;;;1.80;;
7110;SDS011;3597;42.650;23.386;2023-05-20T12:34:58;1.63;;;1.63;;
7110;SDS011;3597;42.650;23.386;2023-05-20T12:37:25;1.40;;;1.40;;
7110;SDS011;3597;42.650;23.386;2023-05-20T12:39:50;1.43;;;1.43;;
7110;SDS011;3597;42.650;23.386;2023-05-20T12:42:16;1.60;;;1.50;;
7110;SDS011;3597;42.650;23.386;2023-05-20T12:44:41;1.67;;;1.67;;
7110;SDS011;3597;42.650;23.386;2023-05-20T12:47:07;1.70;;;1.70;;
7110;SDS011;3597;42.650;23.386;2023-05-20T12:49:33;1.47;;;1.47;;
7110;SDS011;3597;42.650;23.386;2023-05-20T12:51:58;1.83;;;1.83;;
7110;SDS011;3597;42.650;23.386;2023-05-20T12:54:24;1.63;;;1.63;;
7110;SDS011;3597;42.650;23.386;2023-05-20T12:56:52;2.00;;;1.90;;
7110;SDS011;3597;42.650;23.386;2023-05-20T12:59:17;1.77;;;1.77;;
7110;SDS011;3597;42.650;23.386;2023-05-20T13:01:43;2.10;;;1.80;;
7110;SDS011;3597;42.650;23.386;2023-05-20T13:04:08;1.23;;;1.23;;
7110;SDS011;3597;42.650;23.386;2023-05-20T13:06:33;1.40;;;1.40;;
7110;SDS011;3597;42.650;23.386;2023-05-20T13:08:59;1.67;;;1.67;;
7110;SDS011;3597;42.650;23.386;2023-05-20T13:11:24;1.80;;;1.80;;
7110;SDS011;3597;42.650;23.386;2023-05-20T13:13:49;1.67;;;1.67;;
7110;SDS011;3597;42.650;23.386;2023-05-20T13:16:15;1.70;;;1.70;;
7110;SDS011;3597;42.650;23.386;2023-05-20T13:18:41;2.10;;;2.00;;
7110;SDS011;3597;42.650;23.386;2023-05-20T13:21:07;2.13;;;2.03;;
7110;SDS011;3597;42.650;23.386;2023-05-20T13:23:33;2.23;;;2.13;;
7110;SDS011;3597;42.650;23.386;2023-05-20T13:25:58;1.60;;;1.60;;
7110;SDS011;3597;42.650;23.386;2023-05-20T13:28:23;1.63;;;1.53;;
7110;SDS011;3597;42.650;23.386;2023-05-20T13:30:49;2.00;;;1.90;;
7110;SDS011;3597;42.650;23.386;2023-05-20T13:33:14;1.63;;;1.63;;
7110;SDS011;3597;42.650;23.386;2023-05-20T13:35:40;1.60;;;1.60;;
7110;SDS011;3597;42.650;23.386;2023-05-20T13:38:05;1.73;;;1.60;;
7110;SDS011;3597;42.650;23.386;2023-05-20T13:40:31;1.80;;;1.80;;
7110;SDS011;3597;42.650;23.386;2023-05-20T13:42:56;1.43;;;1.43;;
7110;SDS011;3597;42.650;23.386;2023-05-20T13:45:21;1.90;;;1.90;;
7110;SDS011;3597;42.650;23.386;2023-05-20T13:47:47;1.63;;;1.63;;
7110;SDS011;3597;42.650;23.386;2023-05-20T13:50:12;1.57;;;1.57;;
7110;SDS011;3597;42.650;23.386;2023-05-20T13:52:38;1.53;;;1.53;;
7110;SDS011;3597;42.650;23.386;2023-05-20T13:55:03;1.77;;;1.77;;
7110;SDS011;3597;42.650;23.386;2023-05-20T13:57:29;1.90;;;1.90;;
7110;SDS011;3597;42.650;23.386;2023-05-20T13:59:54;1.70;;;1.70;;
7110;SDS011;3597;42.650;23.386;2023-05-20T14:02:20;1.90;;;1.90;;
7110;SDS011;3597;42.650;23.386;2023-05-20T14:04:45;1.70;;;1.70;;
7110;SDS011;3597;42.650;23.386;2023-05-20T14:07:11;2.10;;;2.00;;
7110;SDS011;3597;42.650;23.386;2023-05-20T14:09:37;3.13;;;2.20;;
7110;SDS011;3597;42.650;23.386;2023-05-20T14:12:02;2.13;;;1.80;;
7110;SDS011;3597;42.650;23.386;2023-05-20T14:14:28;1.80;;;1.80;;
7110;SDS011;3597;42.650;23.386;2023-05-20T14:16:54;2.03;;;2.03;;
7110;SDS011;3597;42.650;23.386;2023-05-20T14:19:19;1.70;;;1.70;;
7110;SDS011;3597;42.650;23.386;2023-05-20T14:21:45;2.00;;;1.90;;
7110;SDS011;3597;42.650;23.386;2023-05-20T14:24:10;1.50;;;1.50;;
7110;SDS011;3597;42.650;23.386;2023-05-20T14:26:35;1.90;;;1.90;;
7110;SDS011;3597;42.650;23.386;2023-05-20T14:29:01;1.57;;;1.57;;
7110;SDS011;3597;42.650;23.386;2023-05-20T14:31:26;1.60;;;1.57;;
7110;SDS011;3597;42.650;23.386;2023-05-20T14:33:51;1.90;;;1.90;;
7110;SDS011;3597;42.650;23.386;2023-05-20T14:36:17;1.70;;;1.70;;
7110;SDS011;3597;42.650;23.386;2023-05-20T14:38:42;1.60;;;1.60;;
7110;SDS011;3597;42.650;23.386;2023-05-20T14:41:07;2.07;;;2.07;;
7110;SDS011;3597;42.650;23.386;2023-05-20T14:43:33;1.90;;;1.90;;
7110;SDS011;3597;42.650;23.386;2023-05-20T14:45:58;1.90;;;1.90;;
7110;SDS011;3597;42.650;23.386;2023-05-20T14:48:23;1.60;;;1.60;;
7110;SDS011;3597;42.650;23.386;2023-05-20T14:50:49;1.73;;;1.73;;
7110;SDS011;3597;42.650;23.386;2023-05-20T14:53:14;1.87;;;1.87;;
7110;SDS011;3597;42.650;23.386;2023-05-20T14:55:40;1.83;;;1.83;;
7110;SDS011;3597;42.650;23.386;2023-05-20T14:58:05;2.10;;;2.00;;
7110;SDS011;3597;42.650;23.386;2023-05-20T15:00:31;1.70;;;1.70;;
7110;SDS011;3597;42.650;23.386;2023-05-20T15:02:56;1.73;;;1.73;;
7110;SDS011;3597;42.650;23.386;2023-05-20T15:05:22;2.10;;;2.00;;